Time;durP1;ratioP1;P1;durP2;ratioP2;P2;SDS_P1;SDS_P2;PMS_P1;PMS_P2;Temp;Humidity;BMP_temperature;BMP_pressure;BME280_temperature;BME280_humidity;BME280_pressure;Samples;Min_cycle;Max_cycle;Signal;HPM_P1;HPM_P2
2021/01/15 00:01:23;;;;;;;5.90;0.90;;;;;;;;;;4994186;28;20147;-57
2021/01/15 00:03:50;;;;;;;4.80;1.10;;;;;;;;;;4995149;28;20038;-57
2021/01/15 00:06:23;;;;;;;5.40;1.10;;;;;;;;;;4993316;28;20045;-57
2021/01/15 00:08:49;;;;;;;9.20;1.10;;;;;;;;;;4976982;28;20042;-56
2021/01/15 00:11:34;;;;;;;5.63;1.17;;;;;;;;;;4992460;28;20096;-56
2021/01/15 00:14:00;;;;;;;14.32;1.50;;;;;;;;;;4993768;28;20037;-57
2021/01/15 00:16:27;;;;;;;7.80;1.30;;;;;;;;;;4995675;28;20143;-58
2021/01/15 00:18:54;;;;;;;9.32;1.38;;;;;;;;;;4993239;28;20227;-57
2021/01/15 00:21:19;;;;;;;5.65;0.90;;;;;;;;;;4990734;28;20034;-58
2021/01/15 00:23:45;;;;;;;7.85;1.38;;;;;;;;;;4994691;28;20061;-57
2021/01/15 00:26:18;;;;;;;8.60;1.23;;;;;;;;;;4990995;28;20038;-58
2021/01/15 00:28:44;;;;;;;9.40;1.27;;;;;;;;;;4984924;28;20099;-58
2021/01/15 00:31:10;;;;;;;6.93;1.42;;;;;;;;;;4994135;28;20117;-56
2021/01/15 00:33:36;;;;;;;9.32;1.35;;;;;;;;;;4992020;28;20052;-57
2021/01/15 00:36:02;;;;;;;11.45;1.60;;;;;;;;;;4992140;28;20510;-57
2021/01/15 00:38:30;;;;;;;9.35;1.60;;;;;;;;;;4993419;28;20075;-57
2021/01/15 00:40:59;;;;;;;11.20;1.58;;;;;;;;;;4994327;28;20042;-58
2021/01/15 00:43:25;;;;;;;7.78;1.92;;;;;;;;;;4992148;28;20216;-57
2021/01/15 00:45:51;;;;;;;13.60;2.45;;;;;;;;;;4992985;28;20037;-58
2021/01/15 00:48:17;;;;;;;7.22;2.08;;;;;;;;;;4994742;28;20053;-58
2021/01/15 00:50:43;;;;;;;14.23;1.83;;;;;;;;;;4994156;28;20044;-58
2021/01/15 00:53:09;;;;;;;13.23;2.45;;;;;;;;;;4994541;28;20199;-58
2021/01/15 00:55:35;;;;;;;14.02;1.98;;;;;;;;;;4990776;28;20038;-58
2021/01/15 00:58:02;;;;;;;10.05;1.75;;;;;;;;;;4990550;28;20470;-57
2021/01/15 01:00:29;;;;;;;13.35;1.98;;;;;;;;;;4992579;28;20038;-57
2021/01/15 01:02:56;;;;;;;13.60;1.75;;;;;;;;;;4976997;28;20084;-57
2021/01/15 01:05:22;;;;;;;15.98;1.92;;;;;;;;;;4991502;28;20045;-58
2021/01/15 01:07:49;;;;;;;10.63;1.90;;;;;;;;;;4991726;28;20078;-58
2021/01/15 01:10:15;;;;;;;10.88;2.10;;;;;;;;;;4993378;28;20046;-57
2021/01/15 01:12:41;;;;;;;13.20;1.85;;;;;;;;;;4994218;28;20037;-57
2021/01/15 01:15:08;;;;;;;16.05;2.08;;;;;;;;;;4993856;28;20131;-56
2021/01/15 01:17:34;;;;;;;13.27;2.13;;;;;;;;;;4991094;28;20598;-57
2021/01/15 01:20:00;;;;;;;16.58;2.58;;;;;;;;;;4992680;28;20045;-55
2021/01/15 01:22:26;;;;;;;14.15;2.53;;;;;;;;;;4991378;28;20030;-58
2021/01/15 01:24:51;;;;;;;12.90;3.90;;;;;;;;;;4991355;28;20555;-58
2021/01/15 01:27:17;;;;;;;18.67;3.65;;;;;;;;;;4990305;28;20041;-57
2021/01/15 01:29:43;;;;;;;13.70;3.20;;;;;;;;;;4992560;28;20057;-58
2021/01/15 01:32:09;;;;;;;19.27;3.88;;;;;;;;;;4990572;28;20459;-58
2021/01/15 01:34:35;;;;;;;18.33;3.63;;;;;;;;;;4991838;28;20058;-57
2021/01/15 01:37:01;;;;;;;14.73;3.50;;;;;;;;;;4977574;28;20046;-58
2021/01/15 01:39:27;;;;;;;13.10;3.40;;;;;;;;;;4991632;28;20071;-57
2021/01/15 01:41:52;;;;;;;16.10;3.50;;;;;;;;;;4993105;28;20426;-58
2021/01/15 01:44:18;;;;;;;13.93;3.58;;;;;;;;;;4992189;28;20083;-57
2021/01/15 01:46:44;;;;;;;11.52;3.30;;;;;;;;;;4989803;28;20569;-58
2021/01/15 01:49:10;;;;;;;11.00;2.75;;;;;;;;;;4991120;28;20801;-58
2021/01/15 01:51:36;;;;;;;17.92;5.63;;;;;;;;;;4991021;28;20042;-58
2021/01/15 01:54:02;;;;;;;15.27;4.00;;;;;;;;;;4992257;28;20780;-55
2021/01/15 01:56:28;;;;;;;12.18;3.05;;;;;;;;;;4990603;28;20064;-58
2021/01/15 01:58:54;;;;;;;15.45;3.17;;;;;;;;;;4991266;28;20450;-58
2021/01/15 02:01:20;;;;;;;9.43;2.97;;;;;;;;;;4968884;28;20049;-56
2021/01/15 02:03:46;;;;;;;21.23;2.65;;;;;;;;;;4992152;28;20038;-57
2021/01/15 02:06:17;;;;;;;10.07;2.85;;;;;;;;;;4991213;28;20037;-57
2021/01/15 02:08:43;;;;;;;12.65;3.25;;;;;;;;;;4991455;28;20581;-56
2021/01/15 02:11:14;;;;;;;9.02;2.83;;;;;;;;;;4993424;28;20050;-57
2021/01/15 02:13:49;;;;;;;9.02;2.50;;;;;;;;;;4976364;28;20526;-57
2021/01/15 02:16:19;;;;;;;9.07;2.72;;;;;;;;;;4991025;28;21024;-58
2021/01/15 02:18:47;;;;;;;15.07;2.85;;;;;;;;;;4990964;28;20460;-57
2021/01/15 02:21:40;;;;;;;11.73;2.78;;;;;;;;;;4991108;28;20044;-57
2021/01/15 02:24:44;;;;;;;11.97;2.77;;;;;;;;;;4989848;28;20497;-57
2021/01/15 02:27:28;;;;;;;11.55;2.60;;;;;;;;;;4907301;29;20690;-57
2021/01/15 02:30:03;;;;;;;15.68;2.53;;;;;;;;;;4907153;29;20043;-57
2021/01/15 02:32:36;;;;;;;10.90;2.38;;;;;;;;;;4962156;28;20053;-58
2021/01/15 02:35:14;;;;;;;10.77;2.95;;;;;;;;;;4991197;28;20049;-58
2021/01/15 02:37:58;;;;;;;8.13;2.50;;;;;;;;;;4990186;28;20041;-56
2021/01/15 02:40:24;;;;;;;;;;;;;;;;;;4992188;28;20076;-57
2021/01/15 02:42:51;;;;;;;9.75;3.15;;;;;;;;;;4992243;28;19951;-57
2021/01/15 02:45:17;;;;;;;10.18;1.95;;;;;;;;;;4992631;28;20124;-58
2021/01/15 02:47:48;;;;;;;6.20;2.08;;;;;;;;;;4988707;28;20134;-56
2021/01/15 02:50:19;;;;;;;6.28;1.95;;;;;;;;;;4993469;28;20057;-57
2021/01/15 02:52:45;;;;;;;6.50;1.80;;;;;;;;;;4989878;28;20666;-56
2021/01/15 02:55:12;;;;;;;9.48;2.00;;;;;;;;;;4990816;28;20126;-58
2021/01/15 02:57:39;;;;;;;6.47;2.03;;;;;;;;;;4988835;28;20140;-58
2021/01/15 03:00:09;;;;;;;6.35;2.22;;;;;;;;;;4989836;28;20057;-59
2021/01/15 03:02:54;;;;;;;11.90;2.45;;;;;;;;;;4989373;28;22007;-58
2021/01/15 03:05:21;;;;;;;6.35;2.30;;;;;;;;;;4991588;28;20132;-59
2021/01/15 03:07:49;;;;;;;8.13;2.28;;;;;;;;;;4991335;28;20476;-59
2021/01/15 03:10:16;;;;;;;10.25;2.95;;;;;;;;;;4992523;28;20034;-57
2021/01/15 03:12:43;;;;;;;6.47;2.35;;;;;;;;;;4989621;28;20483;-59
2021/01/15 03:15:10;;;;;;;8.50;2.67;;;;;;;;;;4990170;28;20057;-59
2021/01/15 03:17:38;;;;;;;9.52;2.90;;;;;;;;;;4990403;28;20146;-57
2021/01/15 03:20:04;;;;;;;11.25;3.55;;;;;;;;;;4990816;28;20057;-59
2021/01/15 03:22:32;;;;;;;14.65;3.80;;;;;;;;;;4990726;28;20042;-59
2021/01/15 03:24:59;;;;;;;9.73;2.60;;;;;;;;;;4991488;28;20038;-58
2021/01/15 03:27:37;;;;;;;14.98;2.65;;;;;;;;;;4992749;28;20073;-59
2021/01/15 03:30:07;;;;;;;6.93;2.63;;;;;;;;;;4993370;28;20034;-59
2021/01/15 03:32:33;;;;;;;9.90;3.08;;;;;;;;;;4993923;28;20030;-58
2021/01/15 03:34:58;;;;;;;8.30;2.60;;;;;;;;;;4995420;28;20058;-57
2021/01/15 03:37:24;;;;;;;9.02;2.50;;;;;;;;;;4991851;28;20034;-57
2021/01/15 03:39:50;;;;;;;8.05;2.13;;;;;;;;;;4995337;28;20050;-58
2021/01/15 03:42:16;;;;;;;11.98;2.08;;;;;;;;;;4993128;28;20042;-58
2021/01/15 03:44:42;;;;;;;10.45;2.90;;;;;;;;;;4992562;28;20111;-58
2021/01/15 03:47:08;;;;;;;7.35;2.22;;;;;;;;;;4992531;28;20061;-59
2021/01/15 03:49:34;;;;;;;9.05;1.95;;;;;;;;;;4991591;28;20038;-59
2021/01/15 03:52:00;;;;;;;5.70;1.27;;;;;;;;;;4992541;28;20537;-58
2021/01/15 03:54:26;;;;;;;6.85;1.73;;;;;;;;;;4991014;28;20045;-58
2021/01/15 03:56:53;;;;;;;8.48;1.90;;;;;;;;;;4991742;28;20431;-59
2021/01/15 03:59:18;;;;;;;8.35;1.38;;;;;;;;;;4992049;28;20053;-58
2021/01/15 04:01:45;;;;;;;5.82;1.60;;;;;;;;;;4992260;28;20103;-59
2021/01/15 04:04:11;;;;;;;9.73;2.00;;;;;;;;;;4993695;28;20037;-58
2021/01/15 04:06:37;;;;;;;6.65;1.38;;;;;;;;;;4989764;28;20054;-59
2021/01/15 04:09:03;;;;;;;8.60;1.83;;;;;;;;;;4975853;28;20179;-58
2021/01/15 04:11:29;;;;;;;9.93;1.80;;;;;;;;;;4990968;28;20046;-59
2021/01/15 04:13:55;;;;;;;13.13;1.63;;;;;;;;;;4990817;28;20427;-58
2021/01/15 04:16:21;;;;;;;10.05;1.80;;;;;;;;;;4989026;28;20045;-59
2021/01/15 04:18:46;;;;;;;6.28;1.90;;;;;;;;;;4992775;28;20054;-59
2021/01/15 04:21:16;;;;;;;7.88;2.42;;;;;;;;;;4992783;28;21976;-57
2021/01/15 04:23:42;;;;;;;7.80;2.03;;;;;;;;;;4993389;28;20042;-58
2021/01/15 04:26:08;;;;;;;11.77;2.28;;;;;;;;;;4991067;28;20033;-58
2021/01/15 04:28:36;;;;;;;12.75;1.73;;;;;;;;;;4990893;28;20100;-58
2021/01/15 04:31:01;;;;;;;7.88;1.90;;;;;;;;;;4993441;28;20038;-55
2021/01/15 04:33:27;;;;;;;7.07;1.75;;;;;;;;;;4990930;28;20050;-57
2021/01/15 04:35:53;;;;;;;7.82;1.70;;;;;;;;;;4992928;28;20045;-58
2021/01/15 04:38:19;;;;;;;6.03;1.65;;;;;;;;;;4993487;28;20614;-58
2021/01/15 04:40:45;;;;;;;7.38;2.10;;;;;;;;;;4993177;28;20042;-57
2021/01/15 04:43:15;;;;;;;5.15;1.45;;;;;;;;;;4992947;28;20062;-56
2021/01/15 04:45:43;;;;;;;5.00;1.52;;;;;;;;;;4991810;28;20048;-58
2021/01/15 04:48:14;;;;;;;5.75;1.30;;;;;;;;;;4991716;28;20047;-56
2021/01/15 04:50:41;;;;;;;14.40;1.70;;;;;;;;;;4992850;28;20046;-57
2021/01/15 04:53:12;;;;;;;6.10;1.83;;;;;;;;;;4993300;28;20429;-58
2021/01/15 04:55:41;;;;;;;4.80;1.73;;;;;;;;;;4991505;28;20060;-57
2021/01/15 04:58:07;;;;;;;8.45;1.45;;;;;;;;;;4992736;28;20085;-57
2021/01/15 05:00:36;;;;;;;8.95;1.75;;;;;;;;;;4991468;28;20550;-58
2021/01/15 05:03:03;;;;;;;7.60;1.67;;;;;;;;;;4993944;28;20057;-57
2021/01/15 05:05:29;;;;;;;4.55;1.50;;;;;;;;;;4992617;28;20117;-58
2021/01/15 05:08:11;;;;;;;6.32;1.70;;;;;;;;;;4993717;28;20116;-55
2021/01/15 05:10:39;;;;;;;12.73;1.98;;;;;;;;;;4992491;28;20121;-58
2021/01/15 05:13:06;;;;;;;7.78;1.38;;;;;;;;;;4991732;28;20059;-57
2021/01/15 05:15:32;;;;;;;7.72;1.38;;;;;;;;;;4993726;28;20040;-57
2021/01/15 05:17:58;;;;;;;7.00;1.10;;;;;;;;;;4995808;28;20046;-57
2021/01/15 05:20:26;;;;;;;5.32;1.23;;;;;;;;;;4994394;28;20053;-57
2021/01/15 05:22:52;;;;;;;7.05;1.38;;;;;;;;;;4993400;28;20755;-57
2021/01/15 05:25:18;;;;;;;6.60;1.20;;;;;;;;;;4994436;28;20049;-58
2021/01/15 05:27:44;;;;;;;3.83;1.35;;;;;;;;;;4992774;28;20040;-57
2021/01/15 05:30:13;;;;;;;5.47;1.05;;;;;;;;;;4992971;28;20042;-58
2021/01/15 05:32:39;;;;;;;5.70;1.20;;;;;;;;;;4994745;28;20081;-58
2021/01/15 05:35:06;;;;;;;10.82;1.92;;;;;;;;;;4993413;28;20057;-58
2021/01/15 05:37:32;;;;;;;4.95;0.82;;;;;;;;;;4991856;28;20117;-58
2021/01/15 05:39:58;;;;;;;4.70;0.95;;;;;;;;;;4993043;28;20049;-58
2021/01/15 05:42:24;;;;;;;5.72;1.00;;;;;;;;;;4996349;28;20049;-58
2021/01/15 05:44:50;;;;;;;5.03;0.98;;;;;;;;;;4993321;28;20055;-56
2021/01/15 05:47:16;;;;;;;8.18;1.10;;;;;;;;;;4991116;28;20129;-54
2021/01/15 05:49:55;;;;;;;5.65;0.90;;;;;;;;;;4993466;28;20042;-56
2021/01/15 05:52:21;;;;;;;8.43;0.93;;;;;;;;;;4992458;28;20403;-56
2021/01/15 05:54:47;;;;;;;2.83;0.80;;;;;;;;;;4991094;28;20038;-54
2021/01/15 05:57:24;;;;;;;5.10;0.75;;;;;;;;;;4992765;28;20471;-57
2021/01/15 05:59:50;;;;;;;4.50;0.80;;;;;;;;;;4991798;28;20056;-56
2021/01/15 06:02:16;;;;;;;5.63;0.90;;;;;;;;;;4996288;28;20042;-57
2021/01/15 06:04:42;;;;;;;7.32;0.95;;;;;;;;;;4992507;28;20038;-55
2021/01/15 06:07:10;;;;;;;6.60;0.82;;;;;;;;;;4991630;28;20091;-56
2021/01/15 06:09:37;;;;;;;3.53;1.00;;;;;;;;;;4991137;28;20037;-55
2021/01/15 06:12:14;;;;;;;5.07;1.00;;;;;;;;;;4993826;28;20087;-57
2021/01/15 06:14:49;;;;;;;3.70;0.80;;;;;;;;;;4990965;28;20041;-57
2021/01/15 06:17:19;;;;;;;2.53;0.80;;;;;;;;;;4993274;28;20124;-56
2021/01/15 06:19:45;;;;;;;3.30;0.80;;;;;;;;;;4990657;28;20056;-57
2021/01/15 06:22:29;;;;;;;3.40;0.93;;;;;;;;;;4992009;28;20050;-57
2021/01/15 06:25:19;;;;;;;2.45;0.60;;;;;;;;;;4990785;28;20080;-59
2021/01/15 06:27:46;;;;;;;7.53;0.88;;;;;;;;;;4990368;28;20044;-57
2021/01/15 06:30:23;;;;;;;1.55;0.50;;;;;;;;;;4990839;28;20125;-57
2021/01/15 06:32:49;;;;;;;4.97;0.65;;;;;;;;;;4991033;28;20054;-57
2021/01/15 06:35:26;;;;;;;0.82;0.40;;;;;;;;;;4991478;28;20144;-57
2021/01/15 06:38:02;;;;;;;3.20;0.60;;;;;;;;;;4991272;28;20061;-57
2021/01/15 06:40:36;;;;;;;4.50;0.75;;;;;;;;;;4991307;28;20054;-57
2021/01/15 06:43:20;;;;;;;9.23;1.00;;;;;;;;;;4990446;28;20137;-57
2021/01/15 06:45:47;;;;;;;3.67;1.00;;;;;;;;;;4990721;28;20063;-57
2021/01/15 06:48:14;;;;;;;6.25;0.60;;;;;;;;;;4992035;28;20072;-57
2021/01/15 06:50:41;;;;;;;3.25;0.70;;;;;;;;;;4991046;28;20038;-58
2021/01/15 06:53:16;;;;;;;3.00;0.93;;;;;;;;;;4993940;28;20034;-55
2021/01/15 06:55:46;;;;;;;1.80;0.60;;;;;;;;;;4991330;28;20046;-57
2021/01/15 06:58:17;;;;;;;3.05;0.60;;;;;;;;;;4990387;28;20034;-57
2021/01/15 07:00:49;;;;;;;2.42;0.45;;;;;;;;;;4994935;28;20038;-57
2021/01/15 07:03:27;;;;;;;3.83;0.77;;;;;;;;;;4995021;28;20042;-57
2021/01/15 07:05:53;;;;;;;3.25;0.88;;;;;;;;;;4993722;28;20463;-57
2021/01/15 07:08:19;;;;;;;4.68;0.70;;;;;;;;;;4995742;28;20811;-57
2021/01/15 07:10:46;;;;;;;4.75;0.73;;;;;;;;;;4993937;28;20685;-58
2021/01/15 07:13:19;;;;;;;3.83;0.73;;;;;;;;;;4996065;28;20049;-57
2021/01/15 07:15:46;;;;;;;3.63;0.80;;;;;;;;;;4996254;28;20434;-57
2021/01/15 07:18:23;;;;;;;7.07;1.30;;;;;;;;;;4994222;28;20034;-57
2021/01/15 07:20:49;;;;;;;3.00;0.82;;;;;;;;;;4994653;28;20765;-57
2021/01/15 07:23:15;;;;;;;2.90;0.80;;;;;;;;;;4995116;28;20041;-57
2021/01/15 07:25:48;;;;;;;4.95;0.98;;;;;;;;;;4995333;28;20049;-57
2021/01/15 07:28:14;;;;;;;3.00;0.70;;;;;;;;;;4995718;28;20871;-55
2021/01/15 07:30:40;;;;;;;2.35;0.65;;;;;;;;;;4995531;28;20066;-57
2021/01/15 07:33:09;;;;;;;3.45;0.50;;;;;;;;;;4994522;28;20042;-57
2021/01/15 07:35:36;;;;;;;4.38;0.75;;;;;;;;;;4977979;28;20050;-57
2021/01/15 07:38:16;;;;;;;4.57;0.80;;;;;;;;;;4993771;28;20043;-57
2021/01/15 07:40:42;;;;;;;3.75;0.57;;;;;;;;;;4993873;28;20081;-57
2021/01/15 07:43:29;;;;;;;2.38;0.68;;;;;;;;;;4995473;28;20577;-58
2021/01/15 07:45:55;;;;;;;2.28;0.60;;;;;;;;;;4992512;28;20042;-57
2021/01/15 07:48:21;;;;;;;7.43;0.90;;;;;;;;;;4993271;28;20134;-57
2021/01/15 07:50:48;;;;;;;2.20;0.65;;;;;;;;;;4994671;28;20034;-57
2021/01/15 07:53:20;;;;;;;3.08;0.50;;;;;;;;;;4994868;28;20034;-56
2021/01/15 07:55:49;;;;;;;4.20;0.70;;;;;;;;;;4992956;28;20053;-57
2021/01/15 07:58:25;;;;;;;3.03;0.55;;;;;;;;;;4993791;28;20037;-54
2021/01/15 08:00:51;;;;;;;6.13;0.60;;;;;;;;;;4993893;28;20033;-59
2021/01/15 08:03:24;;;;;;;5.13;0.60;;;;;;;;;;4983579;28;20038;-57
2021/01/15 08:05:56;;;;;;;1.33;0.50;;;;;;;;;;4979438;28;20038;-58
2021/01/15 08:08:28;;;;;;;3.90;0.77;;;;;;;;;;4991362;28;20045;-57
2021/01/15 08:10:54;;;;;;;10.85;4.63;;;;;;;;;;4994928;28;20575;-57
2021/01/15 08:13:38;;;;;;;7.25;0.90;;;;;;;;;;4994671;28;20046;-56
2021/01/15 08:16:07;;;;;;;1.88;0.60;;;;;;;;;;4972227;28;20169;-56
2021/01/15 08:18:33;;;;;;;3.03;0.90;;;;;;;;;;4985292;28;20046;-57
2021/01/15 08:20:59;;;;;;;3.42;0.90;;;;;;;;;;4994830;28;20117;-56
2021/01/15 08:23:27;;;;;;;5.57;0.95;;;;;;;;;;4992601;28;20038;-57
2021/01/15 08:26:02;;;;;;;7.03;0.90;;;;;;;;;;4994336;28;20049;-57
2021/01/15 08:28:29;;;;;;;3.67;0.70;;;;;;;;;;4983982;28;20038;-57
2021/01/15 08:30:56;;;;;;;6.05;0.70;;;;;;;;;;4993325;28;20041;-57
2021/01/15 08:33:22;;;;;;;4.45;0.70;;;;;;;;;;4993843;28;20049;-57
2021/01/15 08:35:51;;;;;;;6.57;1.20;;;;;;;;;;4983525;28;20808;-56
2021/01/15 08:38:26;;;;;;;2.55;0.80;;;;;;;;;;4987377;28;20050;-56
2021/01/15 08:40:52;;;;;;;7.10;0.75;;;;;;;;;;4993738;28;20050;-57
2021/01/15 08:43:17;;;;;;;3.35;0.80;;;;;;;;;;4993685;28;20115;-57
2021/01/15 08:45:46;;;;;;;2.22;0.50;;;;;;;;;;4980829;28;20049;-58
2021/01/15 08:48:14;;;;;;;3.08;0.82;;;;;;;;;;4975146;28;20037;-58
2021/01/15 08:50:39;;;;;;;3.95;0.70;;;;;;;;;;4990313;28;20038;-57
2021/01/15 08:53:07;;;;;;;6.05;1.10;;;;;;;;;;4983475;28;20045;-56
2021/01/15 08:55:48;;;;;;;2.10;0.68;;;;;;;;;;4973935;28;20084;-59
2021/01/15 08:58:14;;;;;;;7.03;0.80;;;;;;;;;;4996662;28;20054;-50
2021/01/15 09:00:39;;;;;;;3.33;0.80;;;;;;;;;;4998046;28;20034;-51
2021/01/15 09:03:06;;;;;;;9.27;0.80;;;;;;;;;;4976562;28;20030;-48
2021/01/15 09:05:32;;;;;;;3.92;1.00;;;;;;;;;;4983983;28;20046;-46
2021/01/15 09:08:03;;;;;;;3.58;0.98;;;;;;;;;;4999460;28;20144;-47
2021/01/15 09:10:30;;;;;;;3.95;0.80;;;;;;;;;;5002147;28;20048;-49
2021/01/15 09:13:01;;;;;;;2.63;0.88;;;;;;;;;;5003074;28;20053;-48
2021/01/15 09:15:28;;;;;;;6.90;1.00;;;;;;;;;;5000881;28;20034;-48
2021/01/15 09:17:57;;;;;;;3.88;0.90;;;;;;;;;;5000754;28;20054;-48
2021/01/15 09:20:23;;;;;;;4.07;1.08;;;;;;;;;;5002279;28;20137;-48
2021/01/15 09:22:50;;;;;;;3.97;0.80;;;;;;;;;;5001577;28;20046;-49
2021/01/15 09:25:16;;;;;;;3.13;0.80;;;;;;;;;;5002600;28;20083;-48
2021/01/15 09:27:43;;;;;;;3.92;1.00;;;;;;;;;;4998484;28;20042;-48
2021/01/15 09:30:09;;;;;;;4.10;1.00;;;;;;;;;;4996241;28;20041;-48
2021/01/15 09:32:55;;;;;;;5.53;0.70;;;;;;;;;;4963898;28;20733;-48
2021/01/15 09:35:21;;;;;;;5.47;0.93;;;;;;;;;;4966098;28;20054;-48
2021/01/15 09:37:47;;;;;;;4.68;1.08;;;;;;;;;;4965733;28;20045;-47
2021/01/15 09:40:13;;;;;;;3.40;0.98;;;;;;;;;;4956229;28;20050;-51
2021/01/15 09:42:39;;;;;;;3.00;0.82;;;;;;;;;;4965240;28;20594;-50
2021/01/15 09:45:06;;;;;;;3.53;0.88;;;;;;;;;;4965210;28;20078;-48
2021/01/15 09:47:33;;;;;;;6.28;1.05;;;;;;;;;;4965561;28;20030;-47
2021/01/15 09:49:59;;;;;;;2.55;0.82;;;;;;;;;;4963801;28;20038;-48
2021/01/15 09:52:25;;;;;;;3.40;1.00;;;;;;;;;;4951205;28;20799;-48
2021/01/15 09:54:51;;;;;;;2.80;0.70;;;;;;;;;;4955095;28;20166;-46
2021/01/15 09:57:17;;;;;;;2.10;0.85;;;;;;;;;;4965809;28;20122;-47
2021/01/15 09:59:43;;;;;;;5.05;0.90;;;;;;;;;;4964131;28;20101;-47
2021/01/15 10:02:09;;;;;;;4.63;0.70;;;;;;;;;;4964816;28;20183;-49
2021/01/15 10:04:35;;;;;;;3.85;0.80;;;;;;;;;;4965722;28;20443;-47
2021/01/15 10:07:00;;;;;;;3.97;0.80;;;;;;;;;;4966012;28;20098;-47
2021/01/15 10:09:27;;;;;;;2.70;0.80;;;;;;;;;;4968475;28;20054;-47
2021/01/15 10:11:53;;;;;;;5.43;0.68;;;;;;;;;;4997255;28;20046;-49
2021/01/15 10:14:24;;;;;;;3.45;0.93;;;;;;;;;;4995633;28;20479;-49
2021/01/15 10:16:50;;;;;;;2.03;0.70;;;;;;;;;;4995479;28;20100;-47
2021/01/15 10:19:16;;;;;;;3.40;0.90;;;;;;;;;;4995519;28;20066;-49
2021/01/15 10:21:43;;;;;;;2.30;0.63;;;;;;;;;;4992569;28;20034;-48
2021/01/15 10:24:09;;;;;;;4.88;0.93;;;;;;;;;;4995658;28;20140;-50
2021/01/15 10:26:36;;;;;;;5.43;0.90;;;;;;;;;;4993973;28;20513;-47
2021/01/15 10:29:05;;;;;;;3.25;0.95;;;;;;;;;;4993389;28;20054;-48
2021/01/15 10:31:32;;;;;;;3.58;0.85;;;;;;;;;;4991592;28;20423;-49
2021/01/15 10:33:59;;;;;;;4.50;0.88;;;;;;;;;;4994773;28;20516;-47
2021/01/15 10:36:25;;;;;;;6.18;0.82;;;;;;;;;;4994627;28;20741;-49
2021/01/15 10:38:51;;;;;;;8.70;1.00;;;;;;;;;;4994353;28;20343;-47
2021/01/15 10:41:27;;;;;;;5.97;0.90;;;;;;;;;;4995992;28;20034;-48
2021/01/15 10:43:53;;;;;;;3.92;0.90;;;;;;;;;;4995093;28;20044;-48
2021/01/15 10:46:38;;;;;;;3.05;1.00;;;;;;;;;;4996686;28;20112;-47
2021/01/15 10:49:05;;;;;;;2.20;0.65;;;;;;;;;;4997827;28;20069;-47
2021/01/15 10:51:31;;;;;;;5.07;0.93;;;;;;;;;;4995584;28;20893;-48
2021/01/15 10:53:57;;;;;;;5.05;0.90;;;;;;;;;;4996338;28;20044;-48
2021/01/15 10:56:24;;;;;;;3.05;0.88;;;;;;;;;;4996292;28;20042;-48
2021/01/15 10:58:50;;;;;;;3.47;1.10;;;;;;;;;;4988474;28;20050;-47
2021/01/15 11:01:16;;;;;;;4.55;0.93;;;;;;;;;;4994002;28;20042;-49
2021/01/15 11:03:45;;;;;;;6.15;1.25;;;;;;;;;;4995224;28;20125;-48
2021/01/15 11:06:18;;;;;;;7.78;1.38;;;;;;;;;;4995754;28;21017;-47
2021/01/15 11:08:44;;;;;;;4.87;1.40;;;;;;;;;;4955718;28;20037;-47
2021/01/15 11:11:09;;;;;;;4.00;1.05;;;;;;;;;;4995021;28;20287;-47
2021/01/15 11:13:35;;;;;;;6.03;1.20;;;;;;;;;;4994362;28;20422;-48
2021/01/15 11:16:01;;;;;;;7.43;1.40;;;;;;;;;;4994238;28;20042;-46
2021/01/15 11:18:27;;;;;;;4.60;1.30;;;;;;;;;;4993881;28;20502;-47
2021/01/15 11:21:13;;;;;;;5.75;1.35;;;;;;;;;;4954876;28;20050;-47
2021/01/15 11:23:38;;;;;;;10.23;1.95;;;;;;;;;;4953857;28;20042;-47
2021/01/15 11:26:04;;;;;;;4.47;1.00;;;;;;;;;;4954477;28;20051;-48
2021/01/15 11:28:30;;;;;;;4.00;1.10;;;;;;;;;;4952177;28;20070;-48
2021/01/15 11:30:56;;;;;;;6.53;1.02;;;;;;;;;;4952430;28;20198;-49
2021/01/15 11:33:22;;;;;;;6.00;1.35;;;;;;;;;;4951241;28;20047;-46
2021/01/15 11:36:12;;;;;;;3.10;1.08;;;;;;;;;;4894243;29;20142;-48
2021/01/15 11:38:39;;;;;;;6.32;1.02;;;;;;;;;;4884690;29;20080;-49
2021/01/15 11:41:05;;;;;;;5.72;1.30;;;;;;;;;;4892343;29;20198;-48
2021/01/15 11:43:37;;;;;;;4.82;1.05;;;;;;;;;;4890843;29;20040;-48
2021/01/15 11:46:03;;;;;;;5.22;0.90;;;;;;;;;;4891255;29;20060;-47
2021/01/15 11:48:30;;;;;;;5.20;0.90;;;;;;;;;;4892329;29;20045;-47
2021/01/15 11:50:56;;;;;;;3.97;0.88;;;;;;;;;;4892665;29;20044;-49
2021/01/15 11:53:23;;;;;;;3.30;1.10;;;;;;;;;;4890521;29;20231;-46
2021/01/15 11:55:52;;;;;;;3.10;0.88;;;;;;;;;;4892417;29;20499;-50
2021/01/15 11:58:18;;;;;;;4.50;1.10;;;;;;;;;;4891704;29;20048;-48
2021/01/15 12:00:44;;;;;;;2.67;0.73;;;;;;;;;;4927233;29;20106;-50
2021/01/15 12:03:10;;;;;;;9.50;0.90;;;;;;;;;;4927477;28;20143;-49
2021/01/15 12:05:54;;;;;;;2.50;0.70;;;;;;;;;;4915023;29;20035;-49
2021/01/15 12:08:21;;;;;;;2.60;0.93;;;;;;;;;;4973824;28;20456;-48
2021/01/15 12:10:50;;;;;;;1.52;0.52;;;;;;;;;;4976471;28;20038;-47
2021/01/15 12:13:16;;;;;;;3.85;0.77;;;;;;;;;;4975823;28;20462;-49
2021/01/15 12:15:47;;;;;;;2.95;1.00;;;;;;;;;;4958056;28;20034;-50
2021/01/15 12:18:12;;;;;;;3.13;0.70;;;;;;;;;;4973854;28;20061;-47
2021/01/15 12:20:39;;;;;;;3.42;0.70;;;;;;;;;;4976818;28;20507;-50
2021/01/15 12:23:04;;;;;;;2.80;0.70;;;;;;;;;;4975150;28;20043;-48
2021/01/15 12:25:50;;;;;;;2.80;1.08;;;;;;;;;;4954590;28;20051;-47
2021/01/15 12:28:17;;;;;;;2.72;0.70;;;;;;;;;;4956510;28;20302;-47
2021/01/15 12:30:46;;;;;;;3.80;0.88;;;;;;;;;;4931246;28;20062;-48
2021/01/15 12:33:16;;;;;;;3.72;0.93;;;;;;;;;;4957837;28;20411;-47
2021/01/15 12:35:45;;;;;;;3.65;0.93;;;;;;;;;;4972471;28;20381;-49
2021/01/15 12:38:13;;;;;;;3.10;0.50;;;;;;;;;;4974923;28;20061;-47
2021/01/15 12:40:39;;;;;;;4.20;0.80;;;;;;;;;;4975206;28;20531;-47
2021/01/15 12:43:06;;;;;;;7.63;0.90;;;;;;;;;;4975226;28;20038;-47
2021/01/15 12:45:36;;;;;;;4.57;0.70;;;;;;;;;;4971064;28;20042;-48
2021/01/15 12:48:02;;;;;;;10.55;0.93;;;;;;;;;;4976888;28;20197;-48
2021/01/15 12:50:28;;;;;;;6.32;0.85;;;;;;;;;;4974936;28;20594;-47
2021/01/15 12:52:54;;;;;;;2.50;0.70;;;;;;;;;;4976274;28;20038;-47
2021/01/15 12:55:23;;;;;;;5.43;0.70;;;;;;;;;;4976111;28;20129;-49
2021/01/15 12:57:52;;;;;;;5.38;0.90;;;;;;;;;;4975689;28;20046;-49
2021/01/15 13:00:18;;;;;;;6.18;0.80;;;;;;;;;;4973946;28;20046;-47
2021/01/15 13:02:44;;;;;;;5.25;0.88;;;;;;;;;;4980579;28;20034;-47
2021/01/15 13:05:10;;;;;;;7.75;1.10;;;;;;;;;;4995690;28;20041;-48
2021/01/15 13:07:36;;;;;;;2.90;0.65;;;;;;;;;;4990639;28;20043;-47
2021/01/15 13:10:03;;;;;;;4.13;0.60;;;;;;;;;;4995860;28;20119;-47
2021/01/15 13:12:29;;;;;;;2.38;0.70;;;;;;;;;;4984286;28;20042;-48
2021/01/15 13:14:55;;;;;;;1.25;0.50;;;;;;;;;;4979365;28;20057;-47
2021/01/15 13:17:21;;;;;;;4.50;1.00;;;;;;;;;;4990979;28;20069;-47
2021/01/15 13:19:47;;;;;;;3.20;0.70;;;;;;;;;;4995076;28;20050;-47
2021/01/15 13:22:16;;;;;;;3.30;0.70;;;;;;;;;;4994948;28;21992;-47
2021/01/15 13:24:41;;;;;;;3.65;0.63;;;;;;;;;;4994730;28;20052;-48
2021/01/15 13:27:07;;;;;;;2.70;0.50;;;;;;;;;;4992273;28;20057;-48
2021/01/15 13:29:33;;;;;;;1.27;0.40;;;;;;;;;;4991745;28;20038;-47
2021/01/15 13:31:59;;;;;;;1.45;0.50;;;;;;;;;;4994358;28;20073;-48
2021/01/15 13:34:25;;;;;;;2.13;0.60;;;;;;;;;;4992935;28;20137;-47
2021/01/15 13:36:52;;;;;;;1.60;0.40;;;;;;;;;;4993795;28;20034;-47
2021/01/15 13:39:18;;;;;;;2.00;0.50;;;;;;;;;;4994437;28;20050;-48
2021/01/15 13:41:44;;;;;;;1.45;0.47;;;;;;;;;;4993475;28;20191;-45
2021/01/15 13:44:10;;;;;;;3.60;0.50;;;;;;;;;;4989356;28;20045;-50
2021/01/15 13:46:36;;;;;;;2.50;0.73;;;;;;;;;;4993020;28;21107;-48
2021/01/15 13:49:02;;;;;;;2.55;0.50;;;;;;;;;;4992179;28;20136;-47
2021/01/15 13:51:28;;;;;;;1.75;0.60;;;;;;;;;;4985272;28;20128;-48
2021/01/15 13:53:53;;;;;;;1.92;0.50;;;;;;;;;;4993991;28;20045;-47
2021/01/15 13:56:23;;;;;;;1.63;0.63;;;;;;;;;;4992667;28;20035;-48
2021/01/15 13:58:49;;;;;;;1.40;0.45;;;;;;;;;;4991139;28;20102;-47
2021/01/15 14:01:16;;;;;;;1.98;0.52;;;;;;;;;;4993739;28;20511;-47
2021/01/15 14:03:43;;;;;;;1.40;0.50;;;;;;;;;;4989121;28;20062;-48
2021/01/15 14:06:09;;;;;;;2.20;0.60;;;;;;;;;;4991672;28;20133;-47
2021/01/15 14:08:35;;;;;;;6.43;0.70;;;;;;;;;;4988373;28;20614;-48
2021/01/15 14:11:01;;;;;;;3.42;0.60;;;;;;;;;;4982159;28;21548;-50
2021/01/15 14:13:27;;;;;;;5.03;0.68;;;;;;;;;;4990880;28;20025;-50
2021/01/15 14:15:53;;;;;;;1.98;0.70;;;;;;;;;;4991909;28;20049;-48
2021/01/15 14:18:18;;;;;;;2.97;1.23;;;;;;;;;;4991749;28;20129;-48
2021/01/15 14:20:44;;;;;;;3.25;0.55;;;;;;;;;;4990659;28;20208;-48
2021/01/15 14:23:10;;;;;;;2.75;0.70;;;;;;;;;;4992814;28;20037;-48
2021/01/15 14:25:36;;;;;;;2.85;0.70;;;;;;;;;;4991115;28;20088;-48
2021/01/15 14:28:02;;;;;;;1.73;0.50;;;;;;;;;;4974268;28;20098;-47
2021/01/15 14:30:28;;;;;;;1.73;0.50;;;;;;;;;;4991452;28;20160;-48
2021/01/15 14:32:55;;;;;;;2.40;0.60;;;;;;;;;;4991888;28;20336;-49
2021/01/15 14:35:22;;;;;;;2.03;0.55;;;;;;;;;;4991871;28;20150;-47
2021/01/15 14:37:54;;;;;;;2.70;0.63;;;;;;;;;;4992215;28;20045;-51
2021/01/15 14:40:20;;;;;;;1.52;0.50;;;;;;;;;;4993693;28;20483;-49
2021/01/15 14:42:46;;;;;;;3.40;0.60;;;;;;;;;;4993792;28;20080;-48
2021/01/15 14:45:13;;;;;;;1.83;0.50;;;;;;;;;;4993407;28;20049;-51
2021/01/15 14:47:39;;;;;;;2.88;0.40;;;;;;;;;;4991983;28;20053;-50